Flight Track Log - Related Links

Times and Time Zones

All times are in EDT time to prevent confusion due to time zone crossing. See the NKS439 flight status page for this flight to view local times or setup timezone preferences in your user account.

Time Position Orientation Groundspeed Altitude Reporting Facility
EDT Latitude Longitude Course Direction KTS MPH feet Rate Location/Type
Tue 12:30:33 AM 26.0770 -80.1380 90° East 169 194 400  Level FlightAware ADS-B
Tue 12:30:53 AM 26.0780 -80.1230 86° East 165 190 1,300 2,429 Climbing FlightAware ADS-B
Tue 12:31:15 AM 26.0790 -80.1050 86° East 171 197 2,100 1,929 Climbing FlightAware ADS-B
Tue 12:31:21 AM 26.0790 -80.0990 90° East 179 206 2,200 1,000 Climbing FlightAware ADS-B
Tue 12:31:33 AM 26.0750 -80.0880 112° Southeast 189 217 2,400 1,000 Climbing FlightAware ADS-B
Tue 12:31:39 AM 26.0710 -80.0830 132° Southeast 200 230 2,500 1,000 Climbing FlightAware ADS-B
Tue 12:31:57 AM 26.0550 -80.0760 159° South 234 269 2,800 1,787 Climbing FlightAware ADS-B
Tue 12:32:26 AM 26.0190 -80.0860 194° South 274 315 3,900 2,816 Climbing FlightAware ADS-B
Tue 12:32:46 AM 25.9950 -80.0980 204° Southwest 266 306 5,100 3,220 Climbing FlightAware ADS-B
Tue 12:33:07 AM 25.9710 -80.1090 202° Southwest 277 319 6,100 3,073 Climbing FlightAware ADS-B
Tue 12:33:27 AM 25.9470 -80.1200 202° Southwest 281 323 7,200 3,300 Climbing FlightAware ADS-B
Tue 12:33:47 AM 25.9220 -80.1310 202° Southwest 280 322 8,300 3,150 Climbing FlightAware ADS-B
Tue 12:34:07 AM 25.8990 -80.1410 201° Southwest 274 315 9,300 2,250 Climbing FlightAware ADS-B
Tue 12:34:43 AM 25.8520 -80.1600 200° South 310 357 10,400 1,457 Climbing FlightAware ADS-B
Tue 12:35:17 AM 25.8010 -80.1810 200° South 345 397 11,000 1,606 Climbing FlightAware ADS-B
Tue 12:35:54 AM 25.7460 -80.2050 201° Southwest 366 421 12,300 2,160 Climbing FlightAware ADS-B
Tue 12:36:32 AM 25.6860 -80.2300 201° Southwest 378 435 13,700 2,000 Climbing FlightAware ADS-B
Tue 12:37:03 AM 25.6310 -80.2530 201° Southwest 383 441 14,600 1,886 Climbing FlightAware ADS-B
Tue 12:37:42 AM 25.5620 -80.2800 199° South 401 461 15,900 1,971 Climbing FlightAware ADS-B
Tue 12:38:13 AM 25.5090 -80.2970 196° South 397 457 16,900 2,031 Climbing FlightAware ADS-B
Tue 12:38:47 AM 25.4450 -80.3170 196° South 404 465 18,100 2,000 Climbing FlightAware ADS-B
Tue 12:39:28 AM 25.3690 -80.3410 196° South 419 482 19,400 1,950 Climbing FlightAware ADS-B
Tue 12:40:07 AM 25.2970 -80.3650 197° South 416 479 20,700 1,760 Climbing FlightAware ADS-B
Tue 12:40:43 AM 25.2290 -80.3870 196° South 423 487 21,600 1,371 Climbing FlightAware ADS-B
Tue 12:41:17 AM 25.1600 -80.4090 196° South 434 499 22,300 1,569 Climbing FlightAware ADS-B
Tue 12:41:48 AM 25.1020 -80.4280 197° South 434 499 23,300 1,629 Climbing FlightAware ADS-B
Tue 12:42:27 AM 25.0220 -80.4540 196° South 449 517 24,200 1,360 Climbing FlightAware ADS-B
Tue 12:43:03 AM 24.9510 -80.4770 196° South 455 524 25,000 1,268 Climbing FlightAware ADS-B
Tue 12:43:38 AM 24.8800 -80.5000 196° South 455 524 25,700 1,385 Climbing FlightAware ADS-B
Tue 12:44:08 AM 24.8190 -80.5200 197° South 455 524 26,500 2,300 Climbing FlightAware ADS-B
Tue 12:44:38 AM 24.7570 -80.5400 196° South 437 503 28,000 2,000 Climbing FlightAware ADS-B
Tue 12:45:14 AM 24.6870 -80.5630 197° South 440 506 28,700 1,200 Climbing FlightAware ADS-B
Tue 12:45:48 AM 24.6180 -80.5850 196° South 452 520 29,400 1,268 Climbing FlightAware ADS-B
Tue 12:46:25 AM 24.5470 -80.6080 196° South 451 519 30,200 2,400 Climbing FlightAware ADS-B
Tue 12:47:03 AM 24.4700 -80.6320 196° South 418 481 32,400 2,261 Climbing FlightAware ADS-B
Tue 12:47:34 AM 24.4140 -80.6510 197° South 420 483 32,800 696 Climbing FlightAware ADS-B
Tue 12:48:12 AM 24.3430 -80.6730 196° South 420 483 33,200 750 Climbing FlightAware ADS-B
Tue 12:48:46 AM 24.2740 -80.6950 196° South 422 486 33,700 1,130 Climbing FlightAware ADS-B
Tue 12:49:21 AM 24.2100 -80.7160 197° South 418 481 34,500 1,015 Climbing FlightAware ADS-B
Tue 12:49:51 AM 24.1510 -80.7350 196° South 420 483 34,800 554 Climbing FlightAware ADS-B
Tue 12:50:26 AM 24.0830 -80.7570 196° South 436 502 35,100 720 Climbing FlightAware ADS-B
Tue 12:51:06 AM 24.0060 -80.7810 196° South 437 503 35,700 800 Climbing FlightAware ADS-B
Tue 12:51:41 AM 23.9380 -80.8030 196° South 438 504 36,100 943 Climbing FlightAware ADS-B
Tue 12:52:16 AM 23.8690 -80.8250 196° South 435 501 36,800 771 Climbing FlightAware ADS-B
Tue 12:52:51 AM 23.8000 -80.8470 196° South 439 505 37,000 171 Climbing FlightAware ADS-B
Tue 12:53:26 AM 23.7330 -80.8680 196° South 440 506 37,000  Level FlightAware ADS-B
Tue 12:54:01 AM 23.6630 -80.8900 196° South 449 517 37,000  Level FlightAware ADS-B
Tue 12:54:38 AM 23.5970 -80.9110 196° South 449 517 37,000  Level FlightAware ADS-B
Tue 12:55:15 AM 23.5130 -80.9380 196° South 450 518 37,000  Level FlightAware ADS-B
Tue 12:55:46 AM 23.4580 -80.9550 196° South 451 519 37,000  Level FlightAware ADS-B
Tue 12:56:24 AM 23.3930 -80.9750 196° South 451 519 37,000  Level FlightAware ADS-B
Tue 12:56:59 AM 23.3050 -81.0030 196° South 453 521 37,000  Level FlightAware ADS-B
Tue 12:57:36 AM 23.2420 -81.0230 196° South 453 521 37,000  Level FlightAware ADS-B
Tue 12:58:12 AM 23.1800 -81.0420 196° South 453 521 37,000  Level FlightAware ADS-B
Tue 12:58:50 AM 23.0800 -81.0740 196° South 450 518 37,000  Level FlightAware ADS-B
Tue 12:59:30 AM 22.9970 -81.1000 196° South 452 520 37,000  Level FlightAware ADS-B
Tue 01:00:07 AM 22.9370 -81.1190 196° South 452 520 37,000  Level FlightAware ADS-B
Tue 01:00:39 AM 22.8600 -81.1430 196° South 451 519 37,000  Level FlightAware ADS-B
Tue 01:01:36 AM 22.7550 -81.1760 196° South 450 518 37,000  Level FlightAware ADS-B
Tue 01:02:12 AM 22.6940 -81.1950 196° South 450 518 37,000  Level FlightAware ADS-B
Tue 01:03:08 AM 22.5610 -81.2370 196° South 456 525 37,000  Level FlightAware ADS-B
Tue 01:03:44 AM 22.4990 -81.2560 196° South 456 525 37,000  Level FlightAware ADS-B
Tue 01:04:12 AM 22.4250 -81.2790 196° South 448 516 37,000  Level FlightAware ADS-B
Tue 01:05:01 AM 22.3420 -81.3050 196° South 448 516 37,000  Level FlightAware ADS-B
Tue 01:05:37 AM 22.2810 -81.3240 196° South 448 516 37,000  Level FlightAware ADS-B
Tue 01:06:13 AM 22.2200 -81.3430 196° South 448 516 37,000  Level FlightAware ADS-B
Tue 01:06:49 AM 22.1590 -81.3620 196° South 448 516 37,000  Level FlightAware ADS-B
Tue 01:07:26 AM 22.0970 -81.3810 196° South 448 516 37,000  Level FlightAware ADS-B
Tue 01:08:03 AM 22.0340 -81.4000 196° South 448 516 37,000  Level FlightAware ADS-B
Tue 01:08:39 AM 21.9730 -81.4190 196° South 448 516 37,000  Level FlightAware ADS-B
Tue 01:09:15 AM 21.9120 -81.4380 196° South 448 516 37,000  Level FlightAware ADS-B
Tue 01:09:51 AM 21.8510 -81.4570 196° South 448 516 37,000  Level FlightAware ADS-B
Tue 01:10:27 AM 21.7900 -81.4760 196° South 448 516 37,000  Level FlightAware ADS-B
Tue 01:11:15 AM 21.7090 -81.5010 196° South 448 516 37,000  Level FlightAware ADS-B
Tue 01:11:51 AM 21.6480 -81.5200 196° South 448 516 37,000  Level FlightAware ADS-B
Tue 01:12:27 AM 21.5870 -81.5390 196° South 448 516 37,000  Level FlightAware ADS-B
Tue 01:13:04 AM 21.5240 -81.5580 196° South 448 516 37,000  Level FlightAware ADS-B
Tue 01:13:41 AM 21.4620 -81.5770 196° South 448 516 37,000  Level FlightAware ADS-B
Tue 01:16:00 AM 21.2280 -81.7197 210° Southwest  Level FlightAware Approximate
Tue 01:17:00 AM 21.1269 -81.7811 210° Southwest  Level FlightAware Approximate
Tue 01:18:00 AM 21.0258 -81.8425 210° Southwest  Level FlightAware Approximate
Tue 01:19:00 AM 20.9247 -81.9037 210° Southwest  Level FlightAware Approximate
Tue 01:20:00 AM 20.8236 -81.9649 209° Southwest  Level FlightAware Approximate
Tue 01:21:00 AM 20.7224 -82.0260 209° Southwest  Level FlightAware Approximate
Tue 01:22:00 AM 20.6213 -82.0871 209° Southwest  Level FlightAware Approximate
Tue 01:23:00 AM 20.5201 -82.1480 209° Southwest  Level FlightAware Approximate
Tue 01:24:00 AM 20.4189 -82.2089 209° Southwest  Level FlightAware Approximate
Tue 01:25:00 AM 20.3176 -82.2696 209° Southwest  Level FlightAware Approximate
Tue 01:26:00 AM 20.2164 -82.3304 209° Southwest  Level FlightAware Approximate
Tue 01:27:00 AM 20.1151 -82.3910 209° Southwest  Level FlightAware Approximate
Tue 01:28:00 AM 20.0097 -82.4347 210° Southwest  Level FlightAware Approximate
Tue 01:29:00 AM 19.9089 -82.4960 210° Southwest  Level FlightAware Approximate
Tue 01:30:00 AM 19.8080 -82.5573 210° Southwest  Level FlightAware Approximate
Tue 01:31:00 AM 19.7071 -82.6185 210° Southwest  Level FlightAware Approximate
Tue 01:32:00 AM 19.6062 -82.6796 210° Southwest  Level FlightAware Approximate
Tue 01:33:00 AM 19.5040 -82.7381 208° Southwest  Level FlightAware Approximate
Tue 01:34:00 AM 19.4016 -82.7964 208° Southwest  Level FlightAware Approximate
Tue 01:35:00 AM 19.2993 -82.8547 208° Southwest  Level FlightAware Approximate
Tue 01:36:00 AM 19.1969 -82.9129 208° Southwest  Level FlightAware Approximate
Tue 01:37:00 AM 19.0945 -82.9710 208° Southwest  Level FlightAware Approximate
Tue 01:38:00 AM 18.9921 -83.0290 208° Southwest  Level FlightAware Approximate
Tue 01:39:00 AM 18.8897 -83.0870 208° Southwest  Level FlightAware Approximate
Tue 01:40:00 AM 18.7879 -83.1461 209° Southwest  Level FlightAware Approximate
Tue 01:41:00 AM 18.6863 -83.2055 209° Southwest  Level FlightAware Approximate
Tue 01:42:00 AM 18.5846 -83.2648 209° Southwest  Level FlightAware Approximate
Tue 01:43:00 AM 18.4829 -83.3240 209° Southwest  Level FlightAware Approximate
Tue 01:44:00 AM 18.3812 -83.3832 209° Southwest  Level FlightAware Approximate
Tue 01:45:00 AM 18.2795 -83.4423 209° Southwest  Level FlightAware Approximate
Tue 01:46:00 AM 18.1777 -83.5013 209° Southwest  Level FlightAware Approximate
Tue 01:47:00 AM 18.0760 -83.5603 209° Southwest  Level FlightAware Approximate
Tue 01:48:00 AM 17.9742 -83.6192 209° Southwest  Level FlightAware Approximate
Tue 01:49:00 AM 17.8724 -83.6780 209° Southwest  Level FlightAware Approximate
Tue 01:50:00 AM 17.7706 -83.7368 209° Southwest  Level FlightAware Approximate
Tue 01:51:00 AM 17.6687 -83.7955 209° Southwest  Level FlightAware Approximate
Tue 01:52:00 AM 17.5669 -83.8541 209° Southwest  Level FlightAware Approximate
Tue 01:53:00 AM 17.4650 -83.9127 209° Southwest  Level FlightAware Approximate
Tue 01:54:00 AM 17.3610 -83.9665 202° Southwest  Level FlightAware Approximate
Tue 01:55:00 AM 17.2534 -84.0122 202° Southwest  Level FlightAware Approximate
Tue 01:56:00 AM 17.1457 -84.0578 202° Southwest  Level FlightAware Approximate
Tue 01:57:00 AM 17.0380 -84.1033 202° Southwest  Level FlightAware Approximate
Tue 01:58:00 AM 16.9303 -84.1488 202° Southwest  Level FlightAware Approximate
Tue 01:59:00 AM 16.8225 -84.1943 202° Southwest  Level FlightAware Approximate
Tue 02:00:00 AM 16.7148 -84.2397 202° Southwest  Level FlightAware Approximate
Tue 02:01:00 AM 16.6071 -84.2850 202° Southwest  Level FlightAware Approximate
Tue 02:02:00 AM 16.4993 -84.3303 202° Southwest  Level FlightAware Approximate
Tue 02:03:00 AM 16.3916 -84.3756 202° Southwest  Level FlightAware Approximate
Tue 02:04:00 AM 16.2838 -84.4208 202° Southwest  Level FlightAware Approximate
Tue 02:05:00 AM 16.1760 -84.4660 202° Southwest  Level FlightAware Approximate
Tue 02:06:00 AM 16.0683 -84.5112 202° Southwest  Level FlightAware Approximate
Tue 02:07:00 AM 15.9605 -84.5564 202° Southwest  Level FlightAware Approximate
Tue 02:08:00 AM 15.8527 -84.6014 202° Southwest  Level FlightAware Approximate
Tue 02:09:00 AM 15.7449 -84.6465 202° Southwest  Level FlightAware Approximate
Tue 02:10:00 AM 15.6371 -84.6915 202° Southwest  Level FlightAware Approximate
Tue 02:11:00 AM 15.5297 -84.7374 203° Southwest  Level FlightAware Approximate
Tue 02:12:00 AM 15.4224 -84.7835 202° Southwest  Level FlightAware Approximate
Tue 02:13:00 AM 15.3150 -84.8295 202° Southwest  Level FlightAware Approximate
Tue 02:14:00 AM 15.2077 -84.8755 202° Southwest  Level FlightAware Approximate
Tue 02:15:00 AM 15.1003 -84.9215 202° Southwest  Level FlightAware Approximate
Tue 02:16:00 AM 14.9929 -84.9674 202° Southwest  Level FlightAware Approximate
Tue 02:17:00 AM 14.8856 -85.0133 203° Southwest  Level FlightAware Approximate
Tue 02:18:00 AM 14.7783 -85.0594 203° Southwest  Level FlightAware Approximate
Tue 02:19:00 AM 14.6712 -85.1059 203° Southwest  Level FlightAware Approximate
Tue 02:20:00 AM 14.5641 -85.1524 203° Southwest  Level FlightAware Approximate
Tue 02:21:00 AM 14.4569 -85.1988 203° Southwest  Level FlightAware Approximate
Tue 02:22:00 AM 14.3498 -85.2451 203° Southwest  Level FlightAware Approximate
Tue 02:23:00 AM 14.2415 -85.2886 200° South  Level FlightAware Approximate
Tue 02:24:00 AM 14.1324 -85.3295 200° South  Level FlightAware Approximate
Tue 02:25:00 AM 14.0233 -85.3708 202° Southwest  Level FlightAware Approximate
Tue 02:26:00 AM 13.9156 -85.4157 202° Southwest  Level FlightAware Approximate
Tue 02:27:00 AM 13.8087 -85.4623 206° Southwest  Level FlightAware Approximate
Tue 02:28:00 AM 13.7038 -85.5137 204° Southwest  Level FlightAware Approximate
Tue 02:29:00 AM 13.5978 -85.5626 204° Southwest  Level FlightAware Approximate
Tue 02:30:00 AM 13.4909 -85.6092 199° South  Level FlightAware Approximate
Tue 02:31:00 AM 13.3812 -85.6484 199° South  Level FlightAware Approximate
Tue 02:32:00 AM 13.2717 -85.6883 203° Southwest  Level FlightAware Approximate
Tue 02:33:00 AM 13.1645 -85.7343 203° Southwest  Level FlightAware Approximate
Tue 02:34:00 AM 13.0573 -85.7802 203° Southwest  Level FlightAware Approximate
Tue 02:35:00 AM 12.9510 -85.8283 204° Southwest  Level FlightAware Approximate
Tue 02:36:00 AM 12.8444 -85.8756 201° Southwest  Level FlightAware Approximate
Tue 02:37:00 AM 12.7361 -85.9189 201° Southwest  Level FlightAware Approximate
Tue 02:38:00 AM 12.6283 -85.9632 202° Southwest  Level FlightAware Approximate
Tue 02:39:00 AM 12.5207 -86.0080 202° Southwest  Level FlightAware Approximate
Tue 02:40:00 AM 12.4108 -86.0464 198° South  Level FlightAware Approximate
Tue 02:41:00 AM 12.3165 -86.0967 201° Southwest  Level FlightAware Approximate
Tue 02:42:00 AM 12.2058 -86.1319 194° South  Level FlightAware Approximate
Tue 02:43:00 AM 12.1500 -86.1500 44° Northeast  Level FlightAware Approximate
Tue 02:44:00 AM 12.1415 -86.1682 44° Northeast  Level Estimated
Tue 02:45:00 AM 12.1415 -86.1682 44° Northeast  Level Estimated
Tue 02:46:00 AM 12.1415 -86.1682 44° Northeast  Level Estimated
Tue 02:47:00 AM 12.1415 -86.1682 44° Northeast  Level Estimated
Tue 02:48:00 AM 12.1415 -86.1682 44° Northeast  Level Estimated
Tue 02:49:00 AM 12.1415 -86.1682 44° Northeast  Level Estimated
Tue 02:50:00 AM 12.1415 -86.1682 44° Northeast  Level Estimated
Tue 02:51:00 AM 12.1415 -86.1682 44° Northeast  Level Estimated
Tue 02:52:00 AM 12.1415 -86.1682 44° Northeast  Level Estimated
Tue 02:53:00 AM 12.1415 -86.1682 44° Northeast  Level Estimated
Tue 02:54:00 AM 12.1415 -86.1682 44° Northeast  Level Estimated
Tue 02:55:00 AM 12.1415 -86.1682 44° Northeast  Level Estimated
Tue 02:56:00 AM 12.1415 -86.1682 44° Northeast  Level Estimated

Login

Don't have an account? Register now (free) for customized features, flight alerts, and more!